Hauptseite
METAR-TAF:

METAR-TAF

Flughäfen :

Flughafen La Tontouta

Nouméa / La Tontouta, Neukaledonien

Breite: 22-01S, Länge: 166-13E, Höhe: 16 m

Beobachtung

Neuester Wetterbericht von vor 32 Minuten, um 08:00 UTC
Windstille
Temperatur 18°C
Luftfeuchtigkeit 77%
Luftdruck 1017 hPa
Sichtweite 10 km oder mehr
Aufgelockert bewölkt in der Höhe von 4100 ft
Durchbrochene Bewölkung in der Höhe von 6000 ft

METAR: NWWW 210800Z AUTO 00000KT 9999 SCT041 BKN060 18/14 Q1017 NOSIG

Zeit: 19:32 (08:32 UTC)

Prognose

Neuester Wetterbericht von vor 3 Stunden und 32 Minuten, um 05:00 UTC
Gültige Prognose vom 21 um 06 UTC bis 22 um 06 UTC
Wind 2 kt aus unterschiedlichen Richtungen
Sichtweite 10 km oder mehr
Aufgelockert bewölkt in der Höhe von 4000 ft
Übergehend zu
vom 21 um 22 UTC bis 21 um 24 UTC
Wind 8 kt aus West/Südwest

TAF: NWWW 210500Z 2106/2206 VRB02KT 9999 SCT040 BECMG 2122/2124 24008KT

Wetterbeobachtungen und Prognosen von mehr als 4000 Flughäfen (METAR und TAF Bericht).

Die verfügbaren Stationen werden durch gelbe und rote Markierungen auf der Karte dargestellt.

Führen Sie die Maus auf sie, um den Namen der Station zu sehen.

Darauf klicken, um die Beobachtung von Wetterbeobachtungen und Prognosen zu sehen.

Um die Karte zu ändern : klicken Sie auf den grünen Tasten mit einem schwarzen Kreuz Zum Vergrößern, auf den grünen Button mit einem Gedankenstrich zu verkleinern, oder auf die grünen Pfeile für benachbarte Karten.


METAR-TAF: